createdAt,value
2022-09-16T00:01:21.253Z,47.92
2022-09-16T00:03:23.000Z,48.02
2022-09-16T00:05:25.417Z,48.26
2022-09-16T00:07:27.145Z,48.54
2022-09-16T00:09:28.842Z,47.79
2022-09-16T00:11:34.478Z,48.13
2022-09-16T00:13:36.083Z,48.03
2022-09-16T00:15:37.979Z,48.51
2022-09-16T00:17:39.825Z,48.45
2022-09-16T00:19:41.475Z,47.96
2022-09-16T00:21:43.036Z,48.04
2022-09-16T00:23:44.782Z,47.66
2022-09-16T00:25:56.076Z,47.92
2022-09-16T00:27:57.728Z,48.08
2022-09-16T00:29:59.520Z,48.06
2022-09-16T00:32:01.201Z,48.12
2022-09-16T00:34:03.131Z,48.09
2022-09-16T00:36:10.957Z,47.86
2022-09-16T00:38:13.131Z,47.47
2022-09-16T00:40:14.774Z,47.97
2022-09-16T00:42:18.066Z,47.84
2022-09-16T00:44:50.430Z,48.10
2022-09-16T00:46:52.402Z,48.15
2022-09-16T00:48:54.136Z,48.29
2022-09-16T00:51:00.906Z,48.31
2022-09-16T00:53:02.959Z,48.48
2022-09-16T00:55:07.847Z,48.81
2022-09-16T00:57:11.085Z,49.00
2022-09-16T00:59:20.072Z,48.71
2022-09-16T01:01:22.023Z,48.65
2022-09-16T01:03:25.254Z,48.47
2022-09-16T01:05:27.761Z,48.73
2022-09-16T01:07:33.123Z,48.58
2022-09-16T01:09:34.772Z,48.42
2022-09-16T01:11:36.481Z,48.42
2022-09-16T01:13:39.001Z,48.50
2022-09-16T01:15:43.299Z,48.39
2022-09-16T01:18:03.086Z,48.49
2022-09-16T01:20:07.680Z,49.32
2022-09-16T01:22:27.317Z,48.96
2022-09-16T01:25:04.513Z,49.20
2022-09-16T01:27:08.834Z,49.28
2022-09-16T01:29:32.039Z,49.61
2022-09-16T01:31:57.867Z,49.77
2022-09-16T01:34:12.616Z,49.61
2022-09-16T01:36:30.808Z,49.59
2022-09-16T01:38:56.018Z,49.54
2022-09-16T01:41:16.473Z,49.39
2022-09-16T01:43:21.931Z,49.51
2022-09-16T01:45:41.685Z,49.52
2022-09-16T01:47:57.223Z,49.41
2022-09-16T01:50:09.235Z,49.68
2022-09-16T01:52:32.533Z,49.81
2022-09-16T01:54:47.596Z,50.79
2022-09-16T01:57:11.985Z,50.50
2022-09-16T01:59:29.216Z,50.31
2022-09-16T02:01:42.344Z,50.30
2022-09-16T02:03:48.352Z,50.12
2022-09-16T02:06:21.102Z,50.36
2022-09-16T02:08:39.677Z,50.26
2022-09-16T02:10:45.324Z,50.14
2022-09-16T02:12:49.137Z,50.03
2022-09-16T02:14:52.589Z,50.20
2022-09-16T02:17:00.381Z,50.73
2022-09-16T02:19:06.976Z,50.69
2022-09-16T02:21:11.921Z,50.60
2022-09-16T02:23:20.995Z,50.78
2022-09-16T02:25:23.413Z,50.74
2022-09-16T02:27:25.939Z,50.60
2022-09-16T02:29:32.696Z,50.98
2022-09-16T02:31:36.351Z,50.88
2022-09-16T02:33:44.684Z,50.40
2022-09-16T02:35:48.625Z,51.00
2022-09-16T02:38:00.223Z,51.22
2022-09-16T02:40:06.397Z,51.44
2022-09-16T02:42:08.281Z,51.14
2022-09-16T02:44:10.893Z,51.45
2022-09-16T02:46:39.327Z,51.28
2022-09-16T02:48:51.178Z,51.10
2022-09-16T02:51:03.173Z,51.07
2022-09-16T02:53:14.132Z,50.72
2022-09-16T02:55:21.437Z,50.87
2022-09-16T02:57:23.195Z,51.18
2022-09-16T02:59:25.420Z,51.12
2022-09-16T03:01:29.011Z,50.76
2022-09-16T03:03:30.563Z,50.54
2022-09-16T03:05:32.219Z,50.55
2022-09-16T03:07:33.901Z,50.77
2022-09-16T03:09:37.647Z,51.00
2022-09-16T03:11:44.900Z,50.96
2022-09-16T03:14:26.637Z,51.04
2022-09-16T03:16:34.204Z,50.86
2022-09-16T03:18:46.920Z,51.56
2022-09-16T03:21:17.086Z,51.24
2022-09-16T03:23:29.038Z,51.08
2022-09-16T03:25:42.758Z,51.50
2022-09-16T03:28:12.435Z,51.02
2022-09-16T03:30:14.295Z,50.80
2022-09-16T03:32:29.900Z,50.40
2022-09-16T03:34:40.275Z,50.67
2022-09-16T03:36:46.065Z,50.54
2022-09-16T03:38:48.698Z,50.69
2022-09-16T03:40:51.042Z,50.27
2022-09-16T03:42:52.664Z,50.11
2022-09-16T03:44:57.410Z,50.96
2022-09-16T03:46:59.071Z,51.36
2022-09-16T03:49:00.759Z,51.94
2022-09-16T03:51:02.388Z,52.01
2022-09-16T03:53:04.293Z,52.46
2022-09-16T03:55:07.579Z,52.61
2022-09-16T03:57:09.704Z,52.45
2022-09-16T03:59:11.354Z,53.15
2022-09-16T04:01:14.296Z,53.42
2022-09-16T04:03:15.933Z,54.17
2022-09-16T04:05:17.549Z,53.97
2022-09-16T04:07:19.228Z,53.91
2022-09-16T04:09:20.918Z,53.32
2022-09-16T04:11:22.637Z,52.92
2022-09-16T04:13:24.395Z,52.71
2022-09-16T04:15:26.158Z,52.59
2022-09-16T04:17:28.136Z,52.65
2022-09-16T04:19:29.714Z,52.29
2022-09-16T04:21:31.305Z,52.05
2022-09-16T04:23:33.081Z,52.26
2022-09-16T04:25:34.977Z,51.79
2022-09-16T04:27:36.706Z,52.12
2022-09-16T04:29:38.644Z,51.89
2022-09-16T04:31:40.291Z,51.60
2022-09-16T04:33:42.300Z,51.39
2022-09-16T04:35:44.170Z,51.09
2022-09-16T04:37:46.513Z,51.20
2022-09-16T04:39:48.142Z,51.90
2022-09-16T04:41:49.816Z,51.72
2022-09-16T04:43:53.125Z,51.64
2022-09-16T04:45:55.020Z,51.89
2022-09-16T04:47:57.919Z,51.78
2022-09-16T04:49:59.608Z,51.49
2022-09-16T04:52:01.325Z,51.61
2022-09-16T04:54:02.910Z,51.75
2022-09-16T04:56:28.599Z,51.26
2022-09-16T04:58:30.170Z,51.38
2022-09-16T05:00:31.960Z,51.35
2022-09-16T05:02:33.607Z,51.05
2022-09-16T05:04:35.251Z,51.30
2022-09-16T05:06:39.580Z,50.86
2022-09-16T05:08:41.463Z,51.00
2022-09-16T05:10:43.029Z,50.57
2022-09-16T05:12:49.312Z,49.84
2022-09-16T05:14:51.098Z,49.91
2022-09-16T05:16:52.693Z,49.61
2022-09-16T05:18:57.098Z,49.01
2022-09-16T05:21:02.615Z,48.87
2022-09-16T05:23:04.675Z,48.50
2022-09-16T05:25:07.820Z,48.63
2022-09-16T05:27:09.494Z,48.37
2022-09-16T05:29:13.968Z,48.11
2022-09-16T05:31:17.406Z,48.69
2022-09-16T05:33:19.014Z,49.12
2022-09-16T05:35:20.617Z,48.90
2022-09-16T05:37:22.256Z,48.19
2022-09-16T05:39:25.249Z,48.60
2022-09-16T05:41:27.837Z,48.08
2022-09-16T05:43:29.704Z,48.34
2022-09-16T05:45:32.568Z,48.76
2022-09-16T05:47:34.369Z,49.01
2022-09-16T05:49:37.259Z,48.30
2022-09-16T05:51:40.281Z,47.95
2022-09-16T05:53:42.217Z,47.77
2022-09-16T05:55:44.052Z,47.53
2022-09-16T05:57:46.205Z,47.17
2022-09-16T05:59:47.804Z,45.77
2022-09-16T06:01:49.529Z,44.77
2022-09-16T06:03:52.143Z,44.31
2022-09-16T06:06:00.766Z,44.27
2022-09-16T06:08:02.758Z,43.98
2022-09-16T06:10:04.682Z,43.52
2022-09-16T06:12:06.428Z,43.50
2022-09-16T06:14:08.880Z,43.17
2022-09-16T06:16:10.879Z,42.81
2022-09-16T06:18:15.958Z,42.75
2022-09-16T06:20:17.565Z,42.25
2022-09-16T06:22:19.099Z,41.87
2022-09-16T06:24:21.196Z,42.12
2022-09-16T06:26:25.168Z,42.15
2022-09-16T06:28:26.797Z,42.96
2022-09-16T06:30:31.111Z,42.58
2022-09-16T06:32:33.529Z,42.70
2022-09-16T06:34:35.137Z,42.42
2022-09-16T06:36:42.807Z,42.45
2022-09-16T06:38:46.996Z,41.94
2022-09-16T06:40:49.683Z,41.95
2022-09-16T06:42:58.305Z,41.14
2022-09-16T06:45:03.831Z,41.02
2022-09-16T06:47:05.567Z,40.89
2022-09-16T06:49:07.241Z,40.61
2022-09-16T06:51:38.498Z,40.45
2022-09-16T06:53:40.576Z,41.16
2022-09-16T06:55:42.323Z,40.46
2022-09-16T06:57:44.169Z,40.28
2022-09-16T06:59:46.409Z,39.63
2022-09-16T07:01:48.042Z,39.59
2022-09-16T07:03:51.841Z,39.03
2022-09-16T07:06:01.885Z,39.48
2022-09-16T07:08:03.662Z,39.67
2022-09-16T07:10:07.450Z,39.82
2022-09-16T07:12:09.443Z,39.85
2022-09-16T07:14:11.135Z,39.81
2022-09-16T07:16:15.404Z,39.99
2022-09-16T07:18:17.036Z,40.55
2022-09-16T07:20:18.592Z,40.75
2022-09-16T07:22:20.300Z,41.14
2022-09-16T07:24:21.945Z,41.33
2022-09-16T07:26:28.911Z,41.17
2022-09-16T07:28:31.583Z,41.39
2022-09-16T07:30:34.428Z,41.56
2022-09-16T07:32:36.283Z,41.06
2022-09-16T07:34:37.941Z,40.70
2022-09-16T07:36:42.653Z,41.17
2022-09-16T07:38:44.323Z,41.51
2022-09-16T07:40:46.010Z,41.81
2022-09-16T07:42:47.653Z,41.48
2022-09-16T07:44:49.261Z,40.74
2022-09-16T07:46:51.600Z,40.27
2022-09-16T07:48:54.506Z,39.66
2022-09-16T07:51:07.689Z,39.87
2022-09-16T07:53:09.451Z,39.81
2022-09-16T07:55:11.941Z,40.07
2022-09-16T07:57:13.536Z,39.33
2022-09-16T07:59:19.075Z,39.37
2022-09-16T08:01:21.578Z,39.50
2022-09-16T08:03:23.331Z,39.27
2022-09-16T08:05:25.066Z,39.53
2022-09-16T08:07:26.627Z,40.13
2022-09-16T08:09:49.888Z,39.95
2022-09-16T08:11:50.441Z,40.14
2022-09-16T08:13:52.054Z,40.45
2022-09-16T08:15:54.433Z,40.85
2022-09-16T08:17:56.136Z,40.34
2022-09-16T08:19:57.829Z,39.58
2022-09-16T08:21:59.485Z,38.98
2022-09-16T08:24:01.218Z,39.27
2022-09-16T08:26:03.305Z,39.20
2022-09-16T08:28:04.896Z,39.70
2022-09-16T08:30:07.028Z,39.76
2022-09-16T08:32:08.848Z,40.35
2022-09-16T08:34:10.467Z,39.91
2022-09-16T08:36:15.061Z,39.98
2022-09-16T08:38:16.741Z,39.78
2022-09-16T08:42:36.957Z,39.29
2022-09-16T08:45:15.223Z,38.77
2022-09-16T08:47:44.711Z,38.50
2022-09-16T08:49:47.481Z,38.46
2022-09-16T08:51:50.104Z,38.80
2022-09-16T08:53:59.922Z,38.93
2022-09-16T08:56:05.776Z,39.21
2022-09-16T08:58:19.903Z,38.80
2022-09-16T09:00:21.914Z,38.86
2022-09-16T09:02:44.097Z,38.80
2022-09-16T09:04:46.237Z,38.52
2022-09-16T09:07:23.310Z,39.04
2022-09-16T09:10:08.583Z,38.38
2022-09-16T09:12:25.380Z,38.80
2022-09-16T09:14:45.559Z,39.34
2022-09-16T09:17:17.935Z,39.55
2022-09-16T09:19:22.353Z,39.89
2022-09-16T09:21:50.638Z,40.21
2022-09-16T09:24:18.451Z,39.73
2022-09-16T09:26:22.436Z,39.76
2022-09-16T09:28:58.284Z,39.23
2022-09-16T09:31:31.919Z,39.76
2022-09-16T09:33:54.795Z,39.67
2022-09-16T09:35:56.572Z,39.99
2022-09-16T09:38:01.684Z,39.80
2022-09-16T09:40:25.006Z,39.61
2022-09-16T09:42:33.139Z,39.61
2022-09-16T09:44:48.302Z,39.54
2022-09-16T09:46:54.730Z,40.15
2022-09-16T09:49:11.530Z,40.23
2022-09-16T09:51:27.811Z,40.21
2022-09-16T09:53:33.832Z,41.00
2022-09-16T09:55:35.852Z,41.22
2022-09-16T09:57:41.175Z,41.96
2022-09-16T10:00:10.473Z,42.43
2022-09-16T10:02:19.474Z,43.39
2022-09-16T10:04:21.095Z,44.20
2022-09-16T10:06:28.100Z,44.40
2022-09-16T10:08:46.316Z,44.40
2022-09-16T10:10:52.705Z,44.70
2022-09-16T10:12:54.684Z,45.36
2022-09-16T10:14:56.556Z,44.98
2022-09-16T10:17:02.959Z,45.27
2022-09-16T10:19:06.164Z,46.09
2022-09-16T10:21:10.664Z,46.07
2022-09-16T10:23:13.553Z,48.18
2022-09-16T10:25:25.398Z,49.06
2022-09-16T10:27:28.421Z,50.76
2022-09-16T10:29:30.079Z,52.43
2022-09-16T10:31:42.001Z,53.40
2022-09-16T10:33:44.814Z,54.40
2022-09-16T10:35:58.262Z,55.33
2022-09-16T10:38:04.460Z,56.69
2022-09-16T10:40:07.753Z,57.13
2022-09-16T10:42:23.549Z,58.36
2022-09-16T10:44:28.398Z,58.40
2022-09-16T10:46:30.825Z,59.11
2022-09-16T10:48:34.674Z,60.03
2022-09-16T10:50:36.383Z,60.15
2022-09-16T10:52:43.080Z,60.49
2022-09-16T10:54:45.175Z,60.13
2022-09-16T10:56:51.753Z,59.42
2022-09-16T10:59:11.143Z,59.62
2022-09-16T11:01:21.871Z,59.49
2022-09-16T11:03:35.819Z,59.23
2022-09-16T11:06:16.043Z,59.80
2022-09-16T11:08:36.438Z,58.57
2022-09-16T11:10:53.931Z,58.63
2022-09-16T11:13:13.470Z,57.13
2022-09-16T11:15:31.988Z,55.97
2022-09-16T11:18:07.448Z,54.13
2022-09-16T11:20:30.256Z,53.67
2022-09-16T11:22:44.108Z,52.03
2022-09-16T11:24:57.599Z,51.54
2022-09-16T11:27:21.996Z,50.38
2022-09-16T11:29:32.611Z,49.40
2022-09-16T11:31:40.983Z,48.73
2022-09-16T11:34:01.526Z,47.58
2022-09-16T11:36:37.685Z,46.92
2022-09-16T11:39:12.900Z,46.43
2022-09-16T11:41:43.834Z,47.23
2022-09-16T11:44:16.237Z,45.91
2022-09-16T11:46:30.071Z,46.66
2022-09-16T11:49:10.255Z,47.44
2022-09-16T11:51:18.305Z,47.08
2022-09-16T11:53:41.490Z,46.14
2022-09-16T11:56:06.202Z,45.65
2022-09-16T11:58:16.957Z,44.51
2022-09-16T12:00:19.254Z,44.94
2022-09-16T12:02:36.581Z,44.67
2022-09-16T12:04:46.737Z,43.98
2022-09-16T12:07:02.115Z,44.21
2022-09-16T12:09:19.475Z,44.11
2022-09-16T12:11:33.078Z,44.07
2022-09-16T12:13:46.528Z,49.93
2022-09-16T12:15:55.179Z,51.17
2022-09-16T12:18:09.727Z,51.43
2022-09-16T12:20:15.146Z,50.64
2022-09-16T12:22:41.032Z,53.06
2022-09-16T12:24:47.736Z,54.77
2022-09-16T12:27:21.650Z,54.75
2022-09-16T12:29:51.206Z,55.94
2022-09-16T12:31:57.090Z,56.37
2022-09-16T12:34:14.687Z,57.00
2022-09-16T12:36:23.266Z,57.31
2022-09-16T12:38:25.704Z,57.26
2022-09-16T12:40:48.595Z,57.00
2022-09-16T12:43:11.427Z,57.71
2022-09-16T12:45:34.819Z,57.77
2022-09-16T12:47:55.364Z,57.32
2022-09-16T12:50:16.461Z,57.28
2022-09-16T12:52:36.661Z,56.54
2022-09-16T12:55:06.590Z,56.80
2022-09-16T12:57:51.856Z,56.51
2022-09-16T13:00:07.748Z,57.95
2022-09-16T13:02:16.667Z,58.52
2022-09-16T13:04:26.151Z,59.05
2022-09-16T13:06:31.615Z,59.92
2022-09-16T13:08:34.723Z,60.23
2022-09-16T13:13:01.883Z,60.66
2022-09-16T13:15:05.576Z,61.11
2022-09-16T13:17:10.313Z,60.68
2022-09-16T13:19:44.809Z,59.34
2022-09-16T13:21:47.356Z,57.90
2022-09-16T13:23:54.424Z,57.81
2022-09-16T13:26:07.512Z,58.54
2022-09-16T13:28:28.316Z,58.86
2022-09-16T13:30:33.089Z,59.38
2022-09-16T13:32:43.474Z,60.49
2022-09-16T13:34:45.077Z,61.30
2022-09-16T13:36:46.738Z,61.92
2022-09-16T13:38:56.148Z,61.96
2022-09-16T13:41:00.552Z,61.75
2022-09-16T13:43:08.230Z,62.18
2022-09-16T13:45:48.510Z,63.49
2022-09-16T13:47:50.093Z,64.37
2022-09-16T13:49:59.426Z,63.59
2022-09-16T13:52:11.410Z,63.90
2022-09-16T13:54:21.997Z,64.59
2022-09-16T13:56:34.208Z,65.04
2022-09-16T13:58:38.943Z,64.33
2022-09-16T14:00:52.474Z,64.71
2022-09-16T14:03:26.148Z,63.34
2022-09-16T14:05:37.082Z,63.42
2022-09-16T14:07:38.584Z,64.92
2022-09-16T14:09:45.442Z,64.56
2022-09-16T14:11:57.102Z,64.86
2022-09-16T14:14:07.659Z,65.88
2022-09-16T14:16:16.179Z,66.58
2022-09-16T14:18:21.211Z,66.08
2022-09-16T14:20:24.696Z,65.75
2022-09-16T14:22:27.696Z,65.75
2022-09-16T14:24:37.919Z,65.18
2022-09-16T14:26:50.320Z,63.96
2022-09-16T14:29:02.356Z,63.41
2022-09-16T14:31:08.807Z,63.26
2022-09-16T14:33:11.092Z,61.89
2022-09-16T14:35:18.956Z,62.12
2022-09-16T14:37:21.139Z,63.05
2022-09-16T14:39:24.210Z,63.61
2022-09-16T14:41:38.690Z,63.85
2022-09-16T14:43:40.527Z,63.69
2022-09-16T14:45:47.198Z,63.44
2022-09-16T14:47:52.111Z,63.12
2022-09-16T14:50:15.089Z,63.64
2022-09-16T14:52:21.894Z,63.73
2022-09-16T14:54:25.202Z,63.45
2022-09-16T14:56:27.009Z,62.36
2022-09-16T14:58:31.501Z,63.01
2022-09-16T15:00:42.095Z,62.78
2022-09-16T15:02:46.418Z,62.21
2022-09-16T15:04:52.275Z,63.42
2022-09-16T15:07:01.825Z,64.63
2022-09-16T15:09:32.595Z,61.95
2022-09-16T15:11:47.546Z,60.37
2022-09-16T15:13:51.574Z,59.22
2022-09-16T15:15:57.384Z,59.26
2022-09-16T15:18:00.202Z,58.95
2022-09-16T15:20:01.916Z,58.47
2022-09-16T15:22:04.738Z,57.86
2022-09-16T15:24:17.270Z,57.95
2022-09-16T15:26:29.269Z,58.03
2022-09-16T15:28:31.052Z,57.76
2022-09-16T15:30:32.679Z,57.77
2022-09-16T15:32:44.038Z,57.64
2022-09-16T15:34:46.607Z,57.33
2022-09-16T15:36:50.713Z,57.51
2022-09-16T15:38:57.692Z,57.60
2022-09-16T15:41:04.315Z,58.16
2022-09-16T15:43:19.172Z,58.64
2022-09-16T15:45:20.774Z,59.64
2022-09-16T15:47:29.381Z,59.98
2022-09-16T15:49:32.924Z,60.74
2022-09-16T15:51:49.933Z,61.64
2022-09-16T15:53:52.635Z,61.33
2022-09-16T15:56:04.937Z,61.44
2022-09-16T15:58:15.505Z,61.34
2022-09-16T16:00:17.120Z,60.93
2022-09-16T16:02:37.887Z,60.59
2022-09-16T16:04:39.755Z,61.20
2022-09-16T16:06:55.441Z,61.29
2022-09-16T16:08:58.187Z,62.91
2022-09-16T16:11:09.082Z,63.76
2022-09-16T16:13:10.687Z,64.68
2022-09-16T16:15:13.388Z,64.75
2022-09-16T16:17:23.965Z,64.65
2022-09-16T16:19:26.384Z,64.85
2022-09-16T16:21:27.985Z,64.99
2022-09-16T16:23:29.654Z,65.11
2022-09-16T16:25:31.359Z,65.31
2022-09-16T16:27:33.676Z,66.08
2022-09-16T16:29:35.383Z,66.36
2022-09-16T16:31:37.448Z,66.39
2022-09-16T16:33:45.028Z,66.12
2022-09-16T16:35:46.691Z,66.32
2022-09-16T16:37:48.591Z,66.50
2022-09-16T16:39:50.217Z,67.03
2022-09-16T16:41:54.076Z,67.34
2022-09-16T16:43:55.719Z,67.04
2022-09-16T16:45:57.745Z,66.73
2022-09-16T16:47:59.671Z,66.21
2022-09-16T16:50:01.742Z,66.04
2022-09-16T16:52:05.254Z,65.56
2022-09-16T16:54:07.062Z,65.19
2022-09-16T16:56:14.809Z,64.94
2022-09-16T16:58:16.989Z,64.68
2022-09-16T17:00:19.549Z,64.54
2022-09-16T17:02:21.357Z,64.63
2022-09-16T17:04:23.901Z,64.33
2022-09-16T17:06:25.696Z,64.44
2022-09-16T17:08:27.434Z,63.79
2022-09-16T17:10:29.580Z,63.72
2022-09-16T17:12:31.373Z,63.84
2022-09-16T17:14:33.582Z,64.25
2022-09-16T17:16:35.535Z,64.10
2022-09-16T17:18:38.658Z,64.96
2022-09-16T17:20:40.381Z,64.98
2022-09-16T17:22:41.930Z,64.81
2022-09-16T17:24:43.529Z,65.12
2022-09-16T17:26:46.241Z,65.15
2022-09-16T17:28:49.611Z,65.11
2022-09-16T17:30:51.544Z,64.99
2022-09-16T17:32:53.183Z,64.85
2022-09-16T17:34:54.805Z,65.24
2022-09-16T17:36:58.497Z,65.33
2022-09-16T17:39:02.536Z,65.79
2022-09-16T17:41:05.736Z,66.26
2022-09-16T17:43:07.434Z,66.21
2022-09-16T17:45:09.371Z,66.49
2022-09-16T17:47:11.042Z,66.55
2022-09-16T17:49:17.463Z,66.67
2022-09-16T17:51:19.557Z,66.77
2022-09-16T17:53:21.481Z,66.89
2022-09-16T17:55:23.094Z,66.79
2022-09-16T17:57:27.973Z,66.51
2022-09-16T17:59:32.808Z,66.27
2022-09-16T18:01:35.249Z,66.07
2022-09-16T18:03:37.697Z,66.29
2022-09-16T18:05:39.695Z,66.22
2022-09-16T18:07:45.848Z,66.57
2022-09-16T18:09:47.609Z,66.52
2022-09-16T18:11:49.211Z,66.53
2022-09-16T18:13:58.818Z,66.48
2022-09-16T18:16:12.333Z,66.33
2022-09-16T18:18:15.064Z,66.34
2022-09-16T18:20:16.956Z,66.17
2022-09-16T18:22:18.854Z,66.12
2022-09-16T18:24:20.630Z,66.26
2022-09-16T18:26:22.959Z,66.25
2022-09-16T18:28:24.533Z,65.99
2022-09-16T18:30:26.151Z,66.38
2022-09-16T18:32:29.341Z,66.12
2022-09-16T18:34:33.631Z,66.26
2022-09-16T18:36:37.073Z,66.43
2022-09-16T18:38:39.486Z,66.85
2022-09-16T18:40:41.754Z,66.88
2022-09-16T18:42:43.493Z,66.80
2022-09-16T18:44:45.065Z,66.66
2022-09-16T18:46:47.329Z,66.76
2022-09-16T18:48:49.892Z,66.63
2022-09-16T18:50:51.762Z,66.44
2022-09-16T18:52:53.387Z,66.72
2022-09-16T18:54:55.027Z,66.69
2022-09-16T18:56:59.154Z,66.66
2022-09-16T19:01:28.133Z,66.72
2022-09-16T19:03:29.870Z,66.28
2022-09-16T19:05:31.415Z,66.34
2022-09-16T19:07:33.019Z,66.29
2022-09-16T19:09:36.483Z,66.15
2022-09-16T19:11:39.110Z,65.85
2022-09-16T19:13:41.132Z,65.51
2022-09-16T19:15:42.791Z,65.25
2022-09-16T19:17:44.513Z,65.75
2022-09-16T19:19:47.965Z,65.92
2022-09-16T19:21:49.644Z,65.74
2022-09-16T19:24:00.038Z,65.76
2022-09-16T19:26:03.440Z,65.77
2022-09-16T19:28:05.095Z,65.82
2022-09-16T19:30:07.768Z,65.98
2022-09-16T19:32:09.488Z,66.02
2022-09-16T19:34:12.876Z,66.02
2022-09-16T19:36:20.187Z,65.74
2022-09-16T19:38:23.403Z,65.75
2022-09-16T19:40:25.819Z,65.41
2022-09-16T19:42:27.674Z,65.50
2022-09-16T19:44:29.927Z,65.21
2022-09-16T19:46:34.888Z,65.08
2022-09-16T19:48:38.877Z,65.11
2022-09-16T19:50:44.409Z,65.31
2022-09-16T19:52:47.513Z,65.11
2022-09-16T19:54:49.717Z,65.34
2022-09-16T19:56:51.809Z,65.23
2022-09-16T19:58:54.354Z,65.28
2022-09-16T20:01:01.035Z,65.22
2022-09-16T20:03:02.889Z,65.29
2022-09-16T20:05:07.242Z,65.26
2022-09-16T20:07:16.852Z,64.98
2022-09-16T20:09:19.818Z,65.02
2022-09-16T20:11:23.586Z,64.95
2022-09-16T20:13:25.345Z,64.74
2022-09-16T20:15:27.025Z,64.83
2022-09-16T20:17:28.663Z,64.62
2022-09-16T20:19:30.274Z,64.74
2022-09-16T20:21:34.994Z,64.85
2022-09-16T20:23:38.216Z,64.64
2022-09-16T20:25:40.808Z,64.69
2022-09-16T20:27:42.414Z,64.73
2022-09-16T20:29:44.009Z,64.49
2022-09-16T20:31:47.065Z,64.54
2022-09-16T20:33:49.556Z,64.61
2022-09-16T20:35:51.495Z,64.54
2022-09-16T20:37:53.108Z,64.21
2022-09-16T20:39:56.520Z,64.24
2022-09-16T20:41:58.574Z,63.98
2022-09-16T20:44:00.222Z,63.92
2022-09-16T20:46:13.698Z,64.17
2022-09-16T20:48:15.367Z,64.43
2022-09-16T20:50:17.082Z,64.87
2022-09-16T20:52:18.896Z,65.11
2022-09-16T20:54:20.503Z,65.44
2022-09-16T20:56:22.406Z,66.62
2022-09-16T20:58:24.104Z,68.34
2022-09-16T21:00:26.304Z,69.44
2022-09-16T21:02:27.944Z,69.91
2022-09-16T21:04:29.939Z,70.06
2022-09-16T21:06:32.805Z,69.97
2022-09-16T21:08:36.968Z,69.72
2022-09-16T21:10:39.006Z,69.31
2022-09-16T21:12:40.640Z,69.00
2022-09-16T21:14:42.244Z,68.63
2022-09-16T21:16:45.789Z,68.30
2022-09-16T21:18:47.904Z,68.14
2022-09-16T21:20:49.826Z,67.84
2022-09-16T21:22:51.885Z,68.00
2022-09-16T21:24:53.493Z,68.29
2022-09-16T21:26:55.114Z,68.29
2022-09-16T21:28:58.917Z,67.96
2022-09-16T21:31:02.228Z,67.55
2022-09-16T21:33:03.943Z,68.24
2022-09-16T21:35:06.043Z,68.80
2022-09-16T21:37:07.629Z,69.58
2022-09-16T21:39:09.271Z,69.64
2022-09-16T21:41:13.182Z,70.38
2022-09-16T21:43:14.802Z,70.97
2022-09-16T21:45:16.369Z,71.89
2022-09-16T21:47:18.024Z,72.07
2022-09-16T21:49:24.356Z,71.96
2022-09-16T21:51:26.688Z,72.43
2022-09-16T21:53:28.267Z,72.99
2022-09-16T21:55:30.377Z,72.61
2022-09-16T21:57:32.059Z,73.32
2022-09-16T21:59:33.683Z,73.67
2022-09-16T22:01:36.019Z,73.38
2022-09-16T22:03:39.002Z,72.83
2022-09-16T22:05:40.870Z,72.59
2022-09-16T22:07:42.636Z,72.56
2022-09-16T22:09:44.476Z,72.62
2022-09-16T22:11:46.657Z,73.46
2022-09-16T22:13:48.740Z,73.34
2022-09-16T22:15:51.154Z,73.05
2022-09-16T22:17:54.233Z,72.74
2022-09-16T22:19:55.817Z,72.85
2022-09-16T22:21:57.533Z,72.63
2022-09-16T22:24:00.305Z,72.15
2022-09-16T22:26:10.475Z,71.87
2022-09-16T22:28:12.713Z,71.55
2022-09-16T22:30:14.356Z,71.53
2022-09-16T22:32:15.996Z,71.54
2022-09-16T22:34:17.961Z,72.18
2022-09-16T22:36:21.996Z,72.35
2022-09-16T22:38:23.951Z,72.19
2022-09-16T22:40:25.674Z,72.60
2022-09-16T22:42:27.312Z,73.17
2022-09-16T22:44:28.977Z,73.18
2022-09-16T22:46:32.947Z,73.03
2022-09-16T22:48:34.956Z,72.50
2022-09-16T22:50:36.687Z,72.31
2022-09-16T22:52:38.324Z,71.78
2022-09-16T22:54:39.952Z,71.50
2022-09-16T22:56:43.021Z,71.08
2022-09-16T22:58:45.610Z,70.97
2022-09-16T23:00:47.291Z,70.89
2022-09-16T23:02:48.892Z,70.95
2022-09-16T23:04:50.459Z,71.29
2022-09-16T23:06:52.097Z,71.10
2022-09-16T23:08:54.098Z,71.14
2022-09-16T23:10:56.239Z,71.09
2022-09-16T23:12:59.596Z,71.06
2022-09-16T23:15:01.462Z,71.33
2022-09-16T23:17:03.088Z,71.61
2022-09-16T23:19:07.185Z,71.63
2022-09-16T23:21:10.831Z,72.19
2022-09-16T23:23:12.327Z,73.23
2022-09-16T23:25:14.090Z,73.58
2022-09-16T23:27:15.981Z,73.64
2022-09-16T23:29:18.453Z,73.59
2022-09-16T23:31:22.129Z,73.00
2022-09-16T23:33:23.779Z,72.93
2022-09-16T23:35:25.421Z,72.67
2022-09-16T23:37:26.977Z,72.52
2022-09-16T23:39:29.526Z,72.37
2022-09-16T23:41:32.098Z,72.00
2022-09-16T23:43:33.940Z,71.78
2022-09-16T23:45:35.816Z,71.62
2022-09-16T23:47:37.408Z,71.56
2022-09-16T23:49:39.289Z,71.30
2022-09-16T23:51:41.147Z,71.11
2022-09-16T23:53:42.715Z,70.92
2022-09-16T23:55:44.733Z,70.73
2022-09-16T23:57:46.693Z,70.85
2022-09-16T23:59:48.342Z,70.88
